Flight Track Log - Related Links

Times and Time Zones

All times are in EDT time to prevent confusion due to time zone crossing. See the DAL2352 flight status page for this flight to view local times or setup timezone preferences in your user account.

Time Position Orientation Groundspeed Altitude Reporting Facility
EDT Latitude Longitude Course Direction KTS MPH feet Rate Location/Type
Fri 06:20:33 AM 42.7714 -73.8092 180° South 141 162 1,500  Level Boston Center
Fri 06:21:22 AM 42.8086 -73.8381 330° Northwest 219 252 2,300 1,927 Climbing Boston Center
Fri 06:22:22 AM 42.8619 -73.9158 313° West 288 331 5,000 2,804 Climbing Boston Center
Fri 06:22:54 AM 42.8906 -73.9478 321° Northwest 293 337 6,600 2,674 Climbing Boston Center
Fri 06:23:00 AM 42.5186 -74.1242 200° South  Level Estimated
Fri 06:23:54 AM 42.9481 -74.0228 316° Northwest 293 337 9,100  Level Boston Center
Fri 06:24:00 AM 42.4416 -74.2311 198° South  Level Estimated
Fri 06:24:54 AM 42.9869 -74.0722 317° Northwest 287 330 11,500  Level Boston Center
Fri 06:25:00 AM 42.3645 -74.3377 200° South  Level Estimated
Fri 06:25:54 AM 42.9664 -74.1881 256° West 237 273 13,600  Level Boston Center
Fri 06:26:00 AM 42.2873 -74.4441 180° South  Level Estimated
Fri 06:26:54 AM 42.8861 -74.2622 214° Southwest 307 353 14,600  Level Boston Center
Fri 06:27:54 AM 42.7836 -74.2789 187° South 338 389 15,800 1,550 Climbing Boston Center
Fri 06:28:54 AM 42.6719 -74.2275 161° South 394 453 17,700 1,600 Climbing Boston Center
Fri 06:29:54 AM 42.5642 -74.1794 162° South 427 491 19,000 1,500 Climbing Boston Center
Fri 06:30:54 AM 42.4503 -74.1311 163° South 438 504 20,700 1,650 Climbing Boston Center
Fri 06:31:54 AM 42.3156 -74.0742 163° South 450 518 22,300 1,450 Climbing Boston Center
Fri 06:32:54 AM 42.1892 -74.0400 169° South 457 526 23,600 2,500 Climbing Boston Center
Fri 06:33:54 AM 42.0658 -74.0481 183° South 457 526 27,300 2,800 Climbing Boston Center
Fri 06:34:54 AM 41.9511 -74.0536 182° South 438 504 29,200 1,550 Climbing Boston Center
Fri 06:35:54 AM 41.8428 -74.0619 183° South 416 479 30,400 1,000 Climbing Boston Center
Fri 06:36:54 AM 41.7486 -74.0792 188° South 398 458 31,200 941 Climbing Boston Center
Fri 06:38:27 AM 41.5936 -74.1772 205° Southwest 412 474 32,800 974 Climbing New York Center
Fri 06:39:28 AM 41.5064 -74.2419 209° Southwest 381 438 33,700 595 Climbing New York Center
Fri 06:40:28 AM 41.4150 -74.3036 207° Southwest 376 433 34,000 150 Climbing New York Center
Fri 06:41:28 AM 41.3064 -74.3753 206° Southwest 384 442 34,000  Level New York Center
Fri 06:42:29 AM 41.2108 -74.4419 208° Southwest 391 450 34,000  Level New York Center
Fri 06:43:26 AM 41.1131 -74.5028 205° Southwest 396 456 34,000  Level New York Center
Fri 06:44:28 AM 41.0317 -74.5753 214° Southwest 396 456 34,000  Level New York Center
Fri 06:45:28 AM 40.9433 -74.6636 217° Southwest 401 461 34,000  Level New York Center
Fri 06:46:29 AM 40.8531 -74.7489 216° Southwest 401 461 34,000  Level New York Center
Fri 06:47:27 AM 40.7625 -74.8342 216° Southwest 407 468 34,000  Level New York Center
Fri 06:48:28 AM 40.6742 -74.9192 216° Southwest 402 463 34,000  Level New York Center
Fri 06:49:29 AM 40.5856 -75.0067 217° Southwest 402 463 34,000  Level New York Center
Fri 06:50:29 AM 40.5108 -75.1114 227° Southwest 396 456 34,000  Level New York Center
Fri 06:51:27 AM 40.4400 -75.2242 230° Southwest 396 456 34,000  Level New York Center
Fri 06:52:28 AM 40.3733 -75.3314 231° Southwest 401 461 34,000  Level New York Center
Fri 06:53:29 AM 40.3025 -75.4411 230° Southwest 395 455 34,000  Level New York Center
Fri 06:54:29 AM 40.2314 -75.5506 230° Southwest 395 455 34,000  Level New York Center
Fri 06:55:27 AM 40.1722 -75.6686 237° Southwest 395 455 34,000  Level New York Center
Fri 06:56:27 AM 40.1153 -75.7869 238° Southwest 395 455 34,000  Level New York Center
Fri 06:57:28 AM 40.0519 -75.9044 235° Southwest 395 455 34,000  Level New York Center
Fri 06:58:29 AM 39.9844 -76.0158 232° Southwest 395 455 34,000  Level New York Center
Fri 06:59:27 AM 39.9106 -76.1267 229° Southwest 400 460 34,000  Level New York Center
Fri 07:00:28 AM 39.8319 -76.2478 230° Southwest 405 466 34,000  Level New York Center
Fri 07:02:12 AM 39.7106 -76.4358 230° Southwest 404 465 34,000  Level Washington Center
Fri 07:03:12 AM 39.6453 -76.5319 229° Southwest 403 464 34,000  Level Washington Center
Fri 07:04:13 AM 39.5736 -76.6442 230° Southwest 408 470 34,000  Level Washington Center
Fri 07:05:11 AM 39.5039 -76.7533 230° Southwest 408 470 34,000  Level Washington Center
Fri 07:06:25 AM 39.4172 -76.8836 229° Southwest 402 463 34,000  Level Washington Center
Fri 07:07:23 AM 39.3450 -76.9925 229° Southwest 402 463 34,000  Level Washington Center
Fri 07:08:24 AM 39.2728 -77.1036 230° Southwest 402 463 34,000  Level Washington Center
Fri 07:09:24 AM 39.2006 -77.2119 229° Southwest 402 463 34,000  Level Washington Center
Fri 07:10:25 AM 39.1283 -77.3175 229° Southwest 402 463 34,000 -454 Level Washington Center
Fri 07:11:23 AM 39.0558 -77.4253 229° Southwest 402 463 33,100 -1,450 Descending Washington Center
Fri 07:12:25 AM 38.9811 -77.5356 229° Southwest 402 463 31,100 -1,525 Descending Washington Center
Fri 07:13:25 AM 38.8933 -77.6639 229° Southwest 429 494 30,000 -559 Descending Washington Center
Fri 07:14:23 AM 38.8336 -77.7556 230° Southwest 429 494 30,000  Level Washington Center
Fri 07:15:24 AM 38.7456 -77.8861 229° Southwest 436 502 30,000  Level Washington Center
Fri 07:16:25 AM 38.6619 -78.0083 229° Southwest 436 502 30,000  Level Washington Center
Fri 07:17:25 AM 38.5867 -78.1228 230° Southwest 431 496 30,000  Level Washington Center
Fri 07:18:22 AM 38.5111 -78.2344 229° Southwest 426 490 30,000  Level Washington Center
Fri 07:19:23 AM 38.4317 -78.3456 228° Southwest 426 490 30,000  Level Washington Center
Fri 07:20:24 AM 38.3539 -78.4592 229° Southwest 426 490 30,000  Level Washington Center
Fri 07:21:22 AM 38.2761 -78.5725 229° Southwest 426 490 30,000  Level Washington Center
Fri 07:22:23 AM 38.2042 -78.6858 231° Southwest 421 484 30,000  Level Washington Center
Fri 07:23:23 AM 38.1328 -78.7858 228° Southwest 421 484 30,000  Level Washington Center
Fri 07:24:24 AM 38.0569 -78.8936 228° Southwest 426 490 30,000  Level Washington Center
Fri 07:25:25 AM 37.9789 -79.0033 228° Southwest 426 490 30,000  Level Washington Center
Fri 07:26:23 AM 37.9006 -79.1131 228° Southwest 426 490 30,000  Level Washington Center
Fri 07:27:24 AM 37.8156 -79.2300 227° Southwest 421 484 30,000  Level Washington Center
Fri 07:28:25 AM 37.7372 -79.3364 227° Southwest 421 484 30,000  Level Washington Center
Fri 07:29:26 AM 37.6742 -79.4225 227° Southwest 428 493 30,000 610 Level Washington Center
Fri 07:30:23 AM 37.5800 -79.5542 228° Southwest 428 493 31,200 1,017 Climbing Washington Center
Fri 07:31:24 AM 37.5144 -79.6450 228° Southwest 416 479 32,000 393 Climbing Washington Center
Fri 07:32:25 AM 37.4292 -79.7633 228° Southwest 411 473 32,000  Level Washington Center
Fri 07:33:24 AM 37.3544 -79.8664 228° Southwest 411 473 32,000  Level Washington Center
Fri 07:34:24 AM 37.2800 -79.9692 228° Southwest 411 473 32,000  Level Washington Center
Fri 07:36:19 AM 37.1317 -80.1650 226° Southwest 421 484 32,000  Level Atlanta Center
Fri 07:37:19 AM 37.0656 -80.2542 227° Southwest 416 479 32,000  Level Atlanta Center
Fri 07:38:19 AM 36.9894 -80.3567 227° Southwest 405 466 32,000  Level Atlanta Center
Fri 07:39:19 AM 36.9153 -80.4561 227° Southwest 405 466 32,000  Level Atlanta Center
Fri 07:40:19 AM 36.8408 -80.5556 227° Southwest 399 459 32,000  Level Atlanta Center
Fri 07:41:19 AM 36.7564 -80.6603 225° Southwest 399 459 32,000  Level Atlanta Center
Fri 07:42:19 AM 36.6919 -80.7508 228° Southwest 394 453 32,000  Level Atlanta Center
Fri 07:43:19 AM 36.6175 -80.8522 228° Southwest 394 453 32,000  Level Atlanta Center
Fri 07:44:19 AM 36.5219 -80.9414 217° Southwest 400 460 32,000  Level Atlanta Center
Fri 07:45:19 AM 36.4319 -81.0197 215° Southwest 400 460 32,000  Level Atlanta Center
Fri 07:46:19 AM 36.3489 -81.1131 222° Southwest 405 466 32,000  Level Atlanta Center
Fri 07:47:19 AM 36.2719 -81.2161 227° Southwest 405 466 32,000  Level Atlanta Center
Fri 07:48:19 AM 36.1969 -81.3167 227° Southwest 410 472 32,000  Level Atlanta Center
Fri 07:49:19 AM 36.1222 -81.4194 228° Southwest 400 460 32,000  Level Atlanta Center
Fri 07:50:19 AM 36.0450 -81.5247 228° Southwest 400 460 32,000  Level Atlanta Center
Fri 07:51:19 AM 35.9719 -81.6244 228° Southwest 400 460 32,000  Level Atlanta Center
Fri 07:52:19 AM 35.8947 -81.7242 226° Southwest 395 455 32,000  Level Atlanta Center
Fri 07:53:19 AM 35.8194 -81.8286 228° Southwest 401 461 32,000  Level Atlanta Center
Fri 07:54:19 AM 35.7439 -81.9306 228° Southwest 401 461 32,000  Level Atlanta Center
Fri 07:55:19 AM 35.6706 -82.0294 228° Southwest 396 456 32,000  Level Atlanta Center
Fri 07:56:19 AM 35.5928 -82.1336 227° Southwest 396 456 32,000  Level Atlanta Center
Fri 07:57:19 AM 35.5172 -82.2322 227° Southwest 401 461 32,000 -350 Level Atlanta Center
Fri 07:58:19 AM 35.4394 -82.3333 227° Southwest 401 461 31,300 -1,100 Descending Atlanta Center
Fri 07:59:19 AM 35.3717 -82.4239 227° Southwest 401 461 29,800 -1,950 Descending Atlanta Center
Fri 08:00:19 AM 35.2897 -82.5300 227° Southwest 412 474 27,400 -1,400 Descending Atlanta Center
Fri 08:01:19 AM 35.2117 -82.6331 227° Southwest 417 480 27,000 -200 Descending Atlanta Center
Fri 08:02:19 AM 35.1356 -82.7308 226° Southwest 412 474 27,000  Level Atlanta Center
Fri 08:03:19 AM 35.0553 -82.8361 227° Southwest 407 468 27,000 -100 Level Atlanta Center
Fri 08:04:19 AM 34.9664 -82.9286 220° Southwest 419 482 26,800 -1,100 Descending Atlanta Center
Fri 08:05:19 AM 34.8772 -83.0208 220° Southwest 428 493 24,800 -1,800 Descending Atlanta Center
Fri 08:06:19 AM 34.7883 -83.1156 221° Southwest 428 493 23,200 -1,700 Descending Atlanta Center
Fri 08:07:19 AM 34.7014 -83.2075 221° Southwest 428 493 21,400 -1,900 Descending Atlanta Center
Fri 08:08:19 AM 34.6019 -83.3094 220° Southwest 433 498 19,400 -1,750 Descending Atlanta Center
Fri 08:09:19 AM 34.5147 -83.4036 222° Southwest 433 498 17,900 -1,433 Descending Atlanta Center
Fri 08:11:19 AM 34.3444 -83.5783 220° Southwest 416 479 15,100 -1,200 Descending Atlanta Center
Fri 08:12:19 AM 34.2592 -83.6694 221° Southwest 409 471 14,300 -550 Descending Atlanta Center
Fri 08:13:19 AM 34.1781 -83.7525 220° Southwest 404 465 14,000 -150 Descending Atlanta Center
Fri 08:14:19 AM 34.0967 -83.8381 221° Southwest 399 459 14,000 -600 Level Atlanta Center
Fri 08:15:19 AM 34.0156 -83.9236 221° Southwest 391 450 12,800 -1,000 Descending Atlanta Center
Fri 08:16:19 AM 33.9361 -84.0089 222° Southwest 385 443 12,000 -400 Descending Atlanta Center
Fri 08:17:19 AM 33.8653 -84.0864 222° Southwest 385 443 12,000  Level Atlanta Center
Fri 08:18:19 AM 33.7667 -84.1500 208° Southwest 382 440 12,000  Level Atlanta TRACON
Fri 08:19:19 AM 33.7333 -84.2667 251° West 334 384 12,000 -737 Level Atlanta TRACON
Fri 08:20:13 AM 33.7333 -84.3500 270° West 294 338 10,600 -2,167 Descending Atlanta TRACON
Fri 08:21:07 AM 33.7333 -84.4333 270° West 290 334 8,100 -2,632 Descending Atlanta TRACON
Fri 08:22:07 AM 33.7333 -84.5333 270° West 271 312 5,600 -1,632 Descending Atlanta TRACON
Fri 08:23:01 AM 33.7333 -84.6000 270° West 230 265 5,000 -316 Descending Atlanta TRACON
Fri 08:24:01 AM 33.7333 -84.6833 270° West 226 260 5,000  Level Atlanta TRACON
Fri 08:25:01 AM 33.7333 -84.7500 270° West 227 261 5,000  Level Atlanta TRACON
Fri 08:25:55 AM 33.7333 -84.8333 270° West 229 264 5,000  Level Atlanta TRACON
Fri 08:26:49 AM 33.7000 -84.8833 231° Southwest 246 283 5,000  Level Atlanta TRACON
Fri 08:27:49 AM 33.6500 -84.8500 151° Southeast 224 258 5,000  Level Atlanta TRACON
Fri 08:28:49 AM 33.6500 -84.7833 90° East 189 217 5,000  Level Atlanta TRACON
Fri 08:29:43 AM 33.6500 -84.7333 90° East 191 220 5,000 -158 Level Atlanta TRACON
Fri 08:30:43 AM 33.6500 -84.6667 90° East 191 220 4,700 -700 Descending Atlanta TRACON
Fri 08:31:43 AM 33.6500 -84.6000 90° East 185 213 3,600 -1,000 Descending Atlanta TRACON
Fri 08:32:43 AM 33.6500 -84.5500 90° East 180 207 2,700 -850 Descending Atlanta TRACON
Fri 08:33:43 AM 33.6500 -84.4833 90° East 149 171 1,900 -800 Descending Atlanta TRACON
Fri 08:35:00 AM 33.6367 -84.4279 64° Northeast  Level Estimated
Fri 08:42:00 AM 33.6367 -84.4279 64° Northeast  Level Estimated
Fri 08:43:00 AM 33.6367 -84.4279 64° Northeast  Level Estimated

Login

Don't have an account? Register now (free) for customized features, flight alerts, and more!